Time;durP1;ratioP1;P1;durP2;ratioP2;P2;SDS_P1;SDS_P2;PMS_P1;PMS_P2;Temp;Humidity;BMP_temperature;BMP_pressure;BME280_temperature;BME280_humidity;BME280_pressure;Samples;Min_cycle;Max_cycle;Signal;HPM_P1;HPM_P2
2022/01/22 00:01:00;;;;;;;;;;;;;;;-0.09;53.88;100041.75;4464082;32;33846;-86
2022/01/22 00:03:30;;;;;;;;;;;;;;;0.16;52.98;100038.34;4459677;32;34045;-87
2022/01/22 00:06:01;;;;;;;;;;;;;;;0.42;52.20;100029.88;4448097;32;34254;-88
2022/01/22 00:08:31;;;;;;;;;;;;;;;0.45;51.87;100029.09;4452816;32;35408;-86
2022/01/22 00:11:02;;;;;;;;;;;;;;;0.66;51.33;100028.09;4447345;32;32805;-88
2022/01/22 00:16:18;;;;;;;;;;;;;;;0.40;51.80;100023.00;4463611;32;35167;-89
2022/01/22 00:18:47;;;;;;;;;;;;;;;0.46;51.68;100027.41;4448578;32;34587;-87
2022/01/22 00:21:19;;;;;;;;;;;;;;;0.19;52.14;100023.13;4449368;32;33601;-89
2022/01/22 00:23:56;;;;;;;;;;;;;;;0.23;51.82;100027.53;4448495;32;32725;-88
2022/01/22 00:26:26;;;;;;;;;;;;;;;-0.02;52.54;100028.38;4457118;32;34941;-87
2022/01/22 00:28:55;;;;;;;;;;;;;;;0.05;52.51;100020.13;4451150;32;34729;-88
2022/01/22 00:31:24;;;;;;;;;;;;;;;0.08;52.30;100019.38;4454649;32;33196;-88
2022/01/22 00:33:52;;;;;;;;;;;;;;;0.11;52.21;100019.47;4445797;32;34856;-87
2022/01/22 00:36:21;;;;;;;;;;;;;;;0.41;51.52;100017.94;4455407;32;35097;-89
2022/01/22 00:38:49;;;;;;;;;;;;;;;0.23;51.75;100024.97;4452630;32;34766;-87
2022/01/22 00:41:18;;;;;;;;;;;;;;;0.18;51.93;100011.19;4459489;32;33545;-87
2022/01/22 00:43:48;;;;;;;;;;;;;;;0.20;51.99;100015.53;4446724;32;34826;-88
2022/01/22 00:46:16;;;;;;;;;;;;;;;0.50;51.21;100021.59;4451782;32;35284;-86
2022/01/22 00:48:45;;;;;;;;;;;;;;;0.42;51.45;100012.00;4446434;32;34296;-89
2022/01/22 00:51:14;;;;;;;;;;;;;;;0.38;51.38;100010.16;4452236;32;34156;-89
2022/01/22 00:53:42;;;;;;;;;;;;;;;0.58;51.12;100000.63;4454338;32;34813;-87
2022/01/22 00:56:13;;;;;;;;;;;;;;;0.34;51.48;100002.34;4450143;32;33984;-88
2022/01/22 00:58:44;;;;;;;;;;;;;;;0.73;50.91;99997.69;4456131;32;33751;-90
2022/01/22 01:01:14;;;;;;;;;;;;;;;0.48;51.42;100006.22;4445319;32;33175;-86
2022/01/22 01:03:42;;;;;;;;;;;;;;;0.24;52.26;100000.31;4449109;32;33698;-86
2022/01/22 01:06:11;;;;;;;;;;;;;;;0.49;51.68;99994.34;4458121;32;34827;-88
2022/01/22 01:08:42;;;;;;;;;;;;;;;0.71;51.17;99988.25;4455901;32;34344;-86
2022/01/22 01:11:13;;;;;;;;;;;;;;;0.54;51.41;99987.72;4457619;32;31878;-86
2022/01/22 01:13:46;;;;;;;;;;;;;;;0.70;51.37;99973.72;4457507;32;34056;-88
2022/01/22 01:16:20;;;;;;;;;;;;;;;0.76;51.23;99966.25;4447740;32;34232;-87
2022/01/22 01:32:50;;;;;;;;;;;;;;;0.79;51.34;99913.56;4451724;32;34216;-86
2022/01/22 01:35:19;;;;;;;;;;;;;;;0.78;51.37;99909.31;4449383;32;33629;-89
2022/01/22 01:37:48;;;;;;;;;;;;;;;0.62;52.09;99907.97;4449108;32;34082;-87
2022/01/22 01:40:19;;;;;;;;;;;;;;;0.80;51.35;99906.81;4449805;32;34853;-87
2022/01/22 01:42:53;;;;;;;;;;;;;;;0.93;51.48;99888.44;4452573;32;33703;-89
2022/01/22 01:45:21;;;;;;;;;;;;;;;0.91;51.44;99892.63;4462619;32;34068;-88
2022/01/22 01:47:55;;;;;;;;;;;;;;;1.17;51.09;99883.16;4449220;32;34223;-86
2022/01/22 01:50:24;;;;;;;;;;;;;;;1.10;51.17;99871.03;4454199;32;34506;-87
2022/01/22 01:53:06;;;;;;;;;;;;;;;0.94;51.75;99858.66;4457396;32;33902;-86
2022/01/22 01:55:48;;;;;;;;;;;;;;;1.11;51.61;99856.56;4453463;32;33504;-89
2022/01/22 01:58:16;;;;;;;;;;;;;;;1.12;51.61;99851.50;4450694;32;33906;-87
2022/01/22 02:00:44;;;;;;;;;;;;;;;0.95;52.15;99837.41;4449226;32;34752;-87
2022/01/22 02:03:15;;;;;;;;;;;;;;;1.10;51.73;99835.28;4449662;32;33666;-88
2022/01/22 02:05:47;;;;;;;;;;;;;;;0.88;52.13;99813.38;4461735;32;34288;-90
2022/01/22 02:08:16;;;;;;;;;;;;;;;0.89;52.10;99804.03;4455374;32;35109;-89
2022/01/22 02:10:54;;;;;;;;;;;;;;;1.11;51.48;99806.31;4467133;32;34406;-88
2022/01/22 02:13:47;;;;;;;;;;;;;;;1.00;51.52;99808.59;4458511;32;33947;-88
2022/01/22 02:24:49;;;;;;;;;;;;;;;0.89;51.22;99793.81;4476414;32;33912;-88
2022/01/22 02:27:18;;;;;;;;;;;;;;;0.91;50.89;99794.72;4471742;32;35457;-88
2022/01/22 02:29:47;;;;;;;;;;;;;;;0.92;50.77;99804.09;4454453;32;34312;-89
2022/01/22 02:35:09;;;;;;;;;;;;;;;0.93;50.84;99781.16;4466237;32;33352;-86
2022/01/22 02:37:45;;;;;;;;;;;;;;;0.75;51.21;99791.75;4460624;32;33854;-87
2022/01/22 02:40:21;;;;;;;;;;;;;;;1.09;50.26;99772.25;4450715;32;34362;-86
2022/01/22 02:42:50;;;;;;;;;;;;;;;1.05;50.23;99778.06;4453217;32;33920;-89
2022/01/22 02:45:21;;;;;;;;;;;;;;;1.16;50.05;99779.22;4449164;32;33826;-88
2022/01/22 02:47:50;;;;;;;;;;;;;;;1.25;50.19;99773.47;4448388;32;33283;-87
2022/01/22 02:50:19;;;;;;;;;;;;;;;1.31;50.23;99765.13;4451948;32;34060;-89
2022/01/22 02:52:49;;;;;;;;;;;;;;;0.93;51.04;99778.63;4451544;32;34765;-87
2022/01/22 02:55:18;;;;;;;;;;;;;;;1.20;50.72;99781.03;4458352;32;34034;-88
2022/01/22 02:57:46;;;;;;;;;;;;;;;1.05;50.71;99788.28;4446404;32;34184;-88
2022/01/22 03:00:17;;;;;;;;;;;;;;;0.93;51.13;99783.72;4451347;32;33974;-86
2022/01/22 03:02:48;;;;;;;;;;;;;;;1.01;50.92;99784.78;4459675;32;34628;-89
2022/01/22 03:05:17;;;;;;;;;;;;;;;1.23;50.58;99778.56;4452834;32;33971;-88
2022/01/22 03:07:50;;;;;;;;;;;;;;;1.26;50.59;99765.88;4461037;32;32307;-87
2022/01/22 03:10:23;;;;;;;;;;;;;;;1.41;50.23;99759.41;4462412;32;35064;-87
2022/01/22 03:13:09;;;;;;;;;;;;;;;1.25;50.52;99756.44;4461082;32;34110;-89
2022/01/22 03:15:53;;;;;;;;;;;;;;;1.58;50.02;99752.16;4449316;32;33043;-87
2022/01/22 03:18:37;;;;;;;;;;;;;;;1.55;50.17;99752.94;4449047;32;35018;-88
2022/01/22 03:21:15;;;;;;;;;;;;;;;1.40;50.55;99757.66;4459454;32;35117;-88
2022/01/22 03:29:33;;;;;;;;;;;;;;;1.86;50.00;99751.06;4437481;32;33989;-87
2022/01/22 03:32:02;;;;;;;;;;;;;;;1.61;50.47;99742.84;4449919;32;34913;-88
2022/01/22 03:34:36;;;;;;;;;;;;;;;1.46;50.98;99739.94;4446093;32;34521;-89
2022/01/22 03:37:05;;;;;;;;;;;;;;;1.59;50.81;99744.50;4455919;32;33764;-87
2022/01/22 03:39:35;;;;;;;;;;;;;;;1.60;50.87;99736.00;4453561;32;34183;-89
2022/01/22 03:42:05;;;;;;;;;;;;;;;1.75;50.65;99735.50;4458673;32;34227;-88
2022/01/22 03:44:34;;;;;;;;;;;;;;;1.72;51.14;99743.09;4456847;32;34424;-88
2022/01/22 03:47:04;;;;;;;;;;;;;;;1.47;51.51;99736.53;4447467;32;33735;-87
2022/01/22 03:49:33;;;;;;;;;;;;;;;1.63;51.27;99725.00;4446898;32;34703;-86
2022/01/22 03:52:03;;;;;;;;;;;;;;;1.82;50.63;99711.78;4457144;32;32586;-86
2022/01/22 03:54:32;;;;;;;;;;;;;;;1.72;51.42;99709.84;4457681;32;33419;-88
2022/01/22 03:57:00;;;;;;;;;;;;;;;1.77;51.59;99715.09;4446958;32;34361;-86
2022/01/22 03:59:31;;;;;;;;;;;;;;;1.67;52.07;99711.44;4453462;32;34169;-87
2022/01/22 04:04:48;;;;;;;;;;;;;;;1.21;57.58;99711.22;4463302;32;35558;-86
2022/01/22 04:10:06;;;;;;;;;;;;;;;1.19;63.24;99725.66;4456129;32;34103;-89
2022/01/22 04:12:42;;;;;;;;;;;;;;;0.84;65.53;99728.13;4448351;32;36309;-86
2022/01/22 04:15:14;;;;;;;;;;;;;;;0.94;65.41;99711.37;4460418;32;34475;-86
2022/01/22 04:26:11;;;;;;;;;;;;;;;1.06;66.87;99710.81;4451842;32;33593;-88
2022/01/22 04:28:39;;;;;;;;;;;;;;;1.18;66.88;99708.56;4452289;32;33156;-89
2022/01/22 04:31:09;;;;;;;;;;;;;;;1.23;67.54;99707.03;4451674;32;34453;-86
2022/01/22 04:33:38;;;;;;;;;;;;;;;1.17;68.67;99706.84;4452283;32;34437;-85
2022/01/22 04:36:07;;;;;;;;;;;;;;;1.36;68.57;99705.63;4457982;32;34637;-86
2022/01/22 04:38:36;;;;;;;;;;;;;;;1.39;68.46;99704.81;4459248;32;31846;-86
2022/01/22 04:41:05;;;;;;;;;;;;;;;1.39;69.11;99700.56;4450885;32;34815;-86
2022/01/22 04:43:35;;;;;;;;;;;;;;;1.60;68.47;99694.25;4447843;32;34553;-86
2022/01/22 04:46:15;;;;;;;;;;;;;;;1.48;69.23;99694.81;4447763;32;34823;-89
2022/01/22 04:48:53;;;;;;;;;;;;;;;1.66;69.03;99679.88;4453484;32;34086;-87
2022/01/22 04:57:07;;;;;;;;;;;;;;;1.79;69.18;99683.59;4404763;32;34209;-88
2022/01/22 04:59:36;;;;;;;;;;;;;;;1.58;70.43;99683.09;4418876;32;33433;-87
2022/01/22 05:02:05;;;;;;;;;;;;;;;1.42;71.26;99681.87;4400894;32;33964;-89
2022/01/22 05:04:35;;;;;;;;;;;;;;;1.63;70.71;99681.53;4393120;32;33949;-89
2022/01/22 05:07:05;;;;;;;;;;;;;;;1.69;70.77;99684.19;4388361;32;34051;-90
2022/01/22 05:09:33;;;;;;;;;;;;;;;1.64;70.71;99691.78;4389379;32;33321;-88
2022/01/22 05:12:04;;;;;;;;;;;;;;;1.81;70.70;99688.72;4398267;32;36677;-89
2022/01/22 05:14:36;;;;;;;;;;;;;;;1.94;70.13;99685.62;4386522;32;34523;-89
2022/01/22 05:17:07;;;;;;;;;;;;;;;1.81;70.59;99684.50;4388536;32;35930;-88
2022/01/22 05:19:46;;;;;;;;;;;;;;;1.74;71.31;99687.75;4400444;32;34516;-90
2022/01/22 05:22:31;;;;;;;;;;;;;;;1.74;71.13;99686.84;4386810;32;32014;-88
2022/01/22 05:25:04;;;;;;;;;;;;;;;1.84;70.67;99682.00;4410158;32;33793;-87
2022/01/22 05:27:53;;;;;;;;;;;;;;;2.10;70.13;99694.47;4402482;32;37533;-88
2022/01/22 05:30:50;;;;;;;;;;;;;;;2.12;69.90;99696.22;4466865;32;34173;-89
2022/01/22 05:36:53;;;;;;;;;;;;;;;2.01;70.03;99695.16;4465323;32;34501;-89
2022/01/22 05:39:09;;;;;;;;;;;;;;;2.03;70.75;99690.94;4463242;31;34738;-89
2022/01/22 05:41:38;;;;;;;;;;;;;;;2.11;70.33;99688.53;4458584;32;34679;-89
2022/01/22 05:44:07;;;;;;;;;;;;;;;2.02;70.40;99690.88;4449020;32;34127;-89
2022/01/22 05:46:36;;;;;;;;;;;;;;;1.88;71.27;99688.87;4458681;32;34586;-89
2022/01/22 05:49:04;;;;;;;;;;;;;;;2.04;71.01;99687.53;4459324;32;33903;-88
2022/01/22 05:51:37;;;;;;;;;;;;;;;1.95;70.88;99678.78;4454981;32;33148;-88
2022/01/22 05:54:32;;;;;;;;;;;;;;;2.08;70.79;99680.78;4459399;32;33952;-88
2022/01/22 05:59:47;;;;;;;;;;;;;;;1.82;72.24;99677.69;4447719;32;34435;-89
2022/01/22 06:02:17;;;;;;;;;;;;;;;1.83;72.34;99685.38;4461067;32;32938;-89
2022/01/22 06:04:47;;;;;;;;;;;;;;;2.03;71.82;99690.03;4460289;32;34655;-90
2022/01/22 06:07:21;;;;;;;;;;;;;;;1.99;71.45;99684.00;4461814;32;34981;-90
2022/01/22 06:10:14;;;;;;;;;;;;;;;2.10;71.47;99697.03;4462530;32;31768;-91
2022/01/22 06:12:46;;;;;;;;;;;;;;;2.04;71.79;99694.34;4456688;32;33172;-88
2022/01/22 06:15:15;;;;;;;;;;;;;;;2.01;71.71;99701.97;4456050;32;34139;-88
2022/01/22 06:17:49;;;;;;;;;;;;;;;1.98;71.88;99689.97;4447572;32;34879;-90
2022/01/22 06:20:18;;;;;;;;;;;;;;;2.17;71.35;99688.63;4456914;32;34647;-88
2022/01/22 06:22:48;;;;;;;;;;;;;;;2.18;71.13;99694.66;4454840;32;34613;-89
2022/01/22 06:25:17;;;;;;;;;;;;;;;2.21;71.23;99700.69;4468009;32;33728;-88
2022/01/22 06:27:46;;;;;;;;;;;;;;;2.46;70.60;99707.12;4451188;32;34600;-92
2022/01/22 06:30:15;;;;;;;;;;;;;;;2.69;69.59;99709.31;4447357;32;33626;-90
2022/01/22 06:32:44;;;;;;;;;;;;;;;2.42;70.42;99707.94;4450552;32;33363;-91
2022/01/22 06:35:13;;;;;;;;;;;;;;;2.33;70.98;99715.44;4464712;32;33845;-91
2022/01/22 06:37:42;;;;;;;;;;;;;;;2.67;69.35;99710.97;4460175;32;35009;-90
2022/01/22 06:43:02;;;;;;;;;;;;;;;2.56;69.53;99729.56;4453910;32;34136;-91
2022/01/22 06:45:35;;;;;;;;;;;;;;;2.51;69.79;99733.72;4453397;32;34759;-90
2022/01/22 06:48:04;;;;;;;;;;;;;;;2.60;69.39;99727.91;4451260;32;35638;-89
2022/01/22 06:50:34;;;;;;;;;;;;;;;2.77;68.58;99728.22;4455929;32;33964;-90
2022/01/22 06:53:03;;;;;;;;;;;;;;;2.61;68.26;99728.75;4462197;32;33082;-90
2022/01/22 06:55:40;;;;;;;;;;;;;;;2.47;68.83;99723.38;4463524;32;34024;-92
2022/01/22 06:58:08;;;;;;;;;;;;;;;2.50;69.14;99720.88;4448832;32;34200;-92
2022/01/22 07:00:38;;;;;;;;;;;;;;;2.62;68.23;99722.81;4446962;32;34619;-91
2022/01/22 07:03:07;;;;;;;;;;;;;;;2.82;66.83;99721.50;4450539;32;32852;-91
2022/01/22 07:05:36;;;;;;;;;;;;;;;2.51;68.05;99712.34;4460813;32;34366;-91
2022/01/22 07:08:05;;;;;;;;;;;;;;;2.30;68.64;99720.50;4456937;32;33931;-92
2022/01/22 07:10:35;;;;;;;;;;;;;;;2.44;68.07;99728.44;4451947;32;34523;-92
2022/01/22 07:13:04;;;;;;;;;;;;;;;2.22;68.95;99737.38;4449192;32;34073;-89
2022/01/22 07:15:33;;;;;;;;;;;;;;;2.20;69.16;99737.34;4459297;32;35294;-91
2022/01/22 07:18:03;;;;;;;;;;;;;;;2.20;68.89;99741.59;4452884;32;34606;-91
2022/01/22 07:20:39;;;;;;;;;;;;;;;2.26;68.94;99751.97;4472839;32;33282;-91
2022/01/22 07:23:17;;;;;;;;;;;;;;;1.82;70.82;99757.84;4449148;32;33799;-90
2022/01/22 07:25:47;;;;;;;;;;;;;;;1.95;70.58;99758.09;4457226;32;35033;-90
2022/01/22 07:28:17;;;;;;;;;;;;;;;2.10;70.02;99759.31;4460108;32;35231;-90
2022/01/22 07:30:53;;;;;;;;;;;;;;;1.99;70.55;99759.91;4447289;32;34684;-89
2022/01/22 07:33:22;;;;;;;;;;;;;;;1.83;71.17;99767.22;4464400;32;35070;-92
2022/01/22 07:35:52;;;;;;;;;;;;;;;1.84;70.89;99763.00;4454097;32;34567;-90
2022/01/22 07:38:20;;;;;;;;;;;;;;;1.98;70.80;99756.50;4455994;32;34842;-89
2022/01/22 07:40:50;;;;;;;;;;;;;;;1.86;70.72;99757.09;4448620;32;34877;-92
2022/01/22 07:43:20;;;;;;;;;;;;;;;1.88;70.78;99750.28;4453554;32;33705;-91
2022/01/22 07:46:08;;;;;;;;;;;;;;;1.73;71.12;99752.50;4457612;32;35348;-92
2022/01/22 07:48:38;;;;;;;;;;;;;;;1.90;70.67;99746.06;4460899;32;34249;-91
2022/01/22 07:51:11;;;;;;;;;;;;;;;1.60;71.68;99748.78;4462443;32;36183;-90
2022/01/22 07:53:40;;;;;;;;;;;;;;;1.53;71.65;99759.69;4460628;32;33251;-93
2022/01/22 07:56:10;;;;;;;;;;;;;;;1.42;72.54;99745.78;4453214;32;34164;-91
2022/01/22 07:58:39;;;;;;;;;;;;;;;1.49;71.91;99732.31;4459612;32;34551;-92
2022/01/22 08:01:08;;;;;;;;;;;;;;;1.35;72.64;99743.91;4459486;32;34488;-91
2022/01/22 08:03:38;;;;;;;;;;;;;;;1.36;72.83;99728.63;4453073;32;33990;-92
2022/01/22 08:06:25;;;;;;;;;;;;;;;1.79;71.65;99737.31;4455508;32;33986;-91
2022/01/22 08:08:59;;;;;;;;;;;;;;;1.62;71.76;99741.13;4455447;32;36921;-91
2022/01/22 08:11:36;;;;;;;;;;;;;;;1.66;71.75;99737.84;4463791;32;34505;-89
2022/01/22 08:14:06;;;;;;;;;;;;;;;1.79;71.05;99741.53;4450352;32;34626;-90
2022/01/22 08:16:35;;;;;;;;;;;;;;;1.66;71.45;99745.50;4455809;32;35416;-90
2022/01/22 08:19:07;;;;;;;;;;;;;;;1.59;71.47;99743.63;4448697;32;32921;-91
2022/01/22 08:21:36;;;;;;;;;;;;;;;1.44;72.19;99746.69;4450894;32;34296;-89
2022/01/22 08:24:15;;;;;;;;;;;;;;;1.57;71.40;99755.50;4462455;32;35198;-90
2022/01/22 08:26:50;;;;;;;;;;;;;;;1.81;70.48;99756.13;4459392;32;34217;-90
2022/01/22 08:29:20;;;;;;;;;;;;;;;1.62;70.62;99759.94;4446704;32;36542;-90
2022/01/22 08:32:02;;;;;;;;;;;;;;;1.76;70.57;99767.03;4458633;32;33020;-91
2022/01/22 08:37:33;;;;;;;;;;;;;;;1.86;70.03;99776.66;4387976;32;35363;-90
2022/01/22 08:40:02;;;;;;;;;;;;;;;1.77;70.35;99782.44;4410352;32;34869;-89
2022/01/22 08:42:32;;;;;;;;;;;;;;;2.19;68.44;99791.91;4415099;32;34036;-90
2022/01/22 08:45:01;;;;;;;;;;;;;;;2.13;68.48;99807.16;4396115;32;34700;-92
2022/01/22 08:47:29;;;;;;;;;;;;;;;2.09;68.54;99807.91;4416008;32;34485;-90
2022/01/22 08:49:58;;;;;;;;;;;;;;;1.99;69.22;99804.25;4387438;32;34758;-92
2022/01/22 08:52:31;;;;;;;;;;;;;;;2.06;69.06;99813.81;4390111;32;34106;-93
2022/01/22 08:55:00;;;;;;;;;;;;;;;2.25;68.20;99804.88;4402556;32;34167;-92
2022/01/22 08:57:29;;;;;;;;;;;;;;;2.34;67.82;99804.19;4397832;32;35200;-92
2022/01/22 09:00:01;;;;;;;;;;;;;;;2.54;66.76;99809.75;4393561;32;34396;-92
2022/01/22 09:02:29;;;;;;;;;;;;;;;2.39;67.61;99814.53;4411648;32;34453;-90
2022/01/22 09:04:59;;;;;;;;;;;;;;;2.37;67.44;99821.31;4392131;32;33918;-92
2022/01/22 09:07:27;;;;;;;;;;;;;;;2.61;67.20;99819.28;4390868;32;34289;-90
2022/01/22 09:09:56;;;;;;;;;;;;;;;2.45;68.03;99818.09;4387186;32;37420;-92
2022/01/22 09:12:26;;;;;;;;;;;;;;;2.58;67.82;99821.75;4443565;32;34698;-92
2022/01/22 09:14:55;;;;;;;;;;;;;;;2.55;67.69;99826.84;4451331;32;33552;-92
2022/01/22 09:17:25;;;;;;;;;;;;;;;2.67;66.67;99842.44;4448618;32;32314;-92
2022/01/22 09:19:57;;;;;;;;;;;;;;;2.79;66.08;99849.53;4455221;32;30740;-92
2022/01/22 09:22:26;;;;;;;;;;;;;;;2.67;65.68;99849.28;4454601;32;35005;-93
2022/01/22 09:24:57;;;;;;;;;;;;;;;2.43;66.59;99852.19;4460917;32;33294;-90
2022/01/22 09:27:28;;;;;;;;;;;;;;;2.49;66.69;99845.50;4452798;32;34157;-93
2022/01/22 09:29:58;;;;;;;;;;;;;;;2.24;66.59;99849.19;4456537;32;35883;-92
2022/01/22 09:32:28;;;;;;;;;;;;;;;2.25;66.83;99861.19;4449123;32;34662;-91
2022/01/22 09:34:57;;;;;;;;;;;;;;;2.52;66.24;99866.03;4449614;32;35868;-92
2022/01/22 09:37:26;;;;;;;;;;;;;;;2.35;66.86;99863.09;4449116;32;34978;-91
2022/01/22 09:39:55;;;;;;;;;;;;;;;2.31;66.25;99874.09;4445751;32;34466;-91
2022/01/22 09:42:24;;;;;;;;;;;;;;;2.20;66.21;99872.13;4455173;32;34517;-91
2022/01/22 09:44:52;;;;;;;;;;;;;;;2.20;65.10;99885.81;4448750;32;32503;-89
2022/01/22 09:47:22;;;;;;;;;;;;;;;2.22;66.28;99873.88;4449699;32;34123;-91
2022/01/22 09:49:52;;;;;;;;;;;;;;;2.21;66.27;99876.44;4460674;32;34620;-90
2022/01/22 09:52:20;;;;;;;;;;;;;;;2.15;65.36;99869.47;4462087;32;34460;-92
2022/01/22 09:54:49;;;;;;;;;;;;;;;2.08;66.18;99876.12;4458449;32;34486;-92
2022/01/22 09:57:18;;;;;;;;;;;;;;;2.42;65.58;99870.94;4452364;32;33163;-91
2022/01/22 09:59:48;;;;;;;;;;;;;;;2.33;64.78;99880.13;4452560;32;33832;-90
2022/01/22 10:02:18;;;;;;;;;;;;;;;2.38;65.27;99871.69;4454234;32;34686;-91
2022/01/22 10:04:48;;;;;;;;;;;;;;;2.31;65.05;99870.69;4448947;32;34140;-91
2022/01/22 10:07:21;;;;;;;;;;;;;;;2.32;66.10;99878.41;4459949;32;35499;-89
2022/01/22 10:09:57;;;;;;;;;;;;;;;2.41;65.27;99869.19;4462817;32;34517;-89
2022/01/22 10:12:26;;;;;;;;;;;;;;;2.58;65.03;99878.09;4451031;32;33830;-91
2022/01/22 10:15:11;;;;;;;;;;;;;;;2.81;64.18;99875.19;4448346;32;34816;-90
2022/01/22 10:17:43;;;;;;;;;;;;;;;2.84;62.23;99876.09;4445468;32;32888;-88
2022/01/22 10:20:34;;;;;;;;;;;;;;;2.46;63.68;99886.37;4448784;32;36287;-88
2022/01/22 10:23:08;;;;;;;;;;;;;;;2.30;64.34;99884.31;4447739;32;34363;-90
2022/01/22 10:25:41;;;;;;;;;;;;;;;2.39;64.05;99889.63;4450669;32;34041;-90
2022/01/22 10:28:14;;;;;;;;;;;;;;;2.43;64.33;99891.44;4447693;32;35087;-91
2022/01/22 10:30:44;;;;;;;;;;;;;;;2.30;64.61;99892.00;4459823;32;35870;-91
2022/01/22 10:33:27;;;;;;;;;;;;;;;2.75;63.50;99899.84;4451994;32;33918;-91
2022/01/22 10:36:08;;;;;;;;;;;;;;;2.75;62.87;99904.09;4451276;32;33037;-90
2022/01/22 10:38:46;;;;;;;;;;;;;;;2.86;62.26;99907.75;4451378;32;33639;-90
2022/01/22 10:41:38;;;;;;;;;;;;;;;2.75;62.78;99899.84;4452374;32;34673;-90
2022/01/22 10:44:45;;;;;;;;;;;;;;;2.80;61.59;99904.19;4456640;32;36444;-90
2022/01/22 10:51:00;;;;;;;;;;;;;;;2.42;62.24;99907.66;4433855;32;35725;-89
2022/01/22 10:54:26;;;;;;;;;;;;;;;2.73;61.48;99909.19;4453174;32;37745;-91
2022/01/22 11:01:17;;;;;;;;;;;;;;;2.75;60.28;99915.22;4414773;32;33147;-89
2022/01/22 11:04:38;;;;;;;;;;;;;;;2.90;59.80;99919.81;4416247;32;36178;-89
2022/01/22 11:07:27;;;;;;;;;;;;;;;3.17;58.74;99929.78;4414193;32;36556;-89
2022/01/22 11:10:27;;;;;;;;;;;;;;;2.83;59.35;99922.19;4423287;32;33898;-91
2022/01/22 11:13:18;;;;;;;;;;;;;;;2.84;58.84;99934.19;4406934;32;33151;-91
2022/01/22 11:19:55;;;;;;;;;;;;;;;2.68;58.00;99936.41;4410286;32;34571;-89
2022/01/22 11:34:54;;;;;;;;;;;;;;;3.29;55.61;99956.50;4343921;32;35443;-89
2022/01/22 11:38:05;;;;;;;;;;;;;;;3.29;53.76;99961.63;4362298;32;32577;-90
2022/01/22 11:41:13;;;;;;;;;;;;;;;3.24;54.50;99953.84;4372404;32;35734;-90
2022/01/22 11:47:17;;;;;;;;;;;;;;;3.32;48.08;99961.69;4391660;32;34268;-89
2022/01/22 11:50:10;;;;;;;;;;;;;;;3.02;48.56;99964.47;4391625;32;33947;-89
2022/01/22 11:52:47;;;;;;;;;;;;;;;3.14;47.72;99965.59;4400333;32;32869;-90
2022/01/22 11:55:22;;;;;;;;;;;;;;;2.99;50.64;99966.12;4391662;32;33830;-88
2022/01/22 11:57:53;;;;;;;;;;;;;;;2.81;53.34;99960.59;4444199;32;33664;-88
2022/01/22 12:00:27;;;;;;;;;;;;;;;3.29;51.74;99966.75;4463694;32;33915;-89
2022/01/22 12:03:17;;;;;;;;;;;;;;;3.06;51.39;99976.50;4462148;32;33660;-90
2022/01/22 12:06:09;;;;;;;;;;;;;;;3.03;52.33;99976.47;4453119;32;33675;-88
2022/01/22 12:09:04;;;;;;;;;;;;;;;3.03;49.55;99981.59;4464636;32;34844;-90
2022/01/22 12:14:55;;;;;;;;;;;;;;;3.02;50.68;99984.97;4452187;32;36428;-91
2022/01/22 12:17:43;;;;;;;;;;;;;;;3.34;49.85;99983.97;4453640;32;33246;-90
2022/01/22 12:20:31;;;;;;;;;;;;;;;3.39;47.68;99987.47;4448408;32;32806;-89
2022/01/22 12:23:03;;;;;;;;;;;;;;;3.40;47.74;99978.94;4456717;32;34014;-89
2022/01/22 12:25:55;;;;;;;;;;;;;;;3.37;48.23;99978.87;4464894;32;33090;-89
2022/01/22 12:28:38;;;;;;;;;;;;;;;3.06;48.76;99982.50;4457469;32;36194;-88
2022/01/22 12:31:08;;;;;;;;;;;;;;;2.99;49.61;99978.06;4450604;32;33959;-89
2022/01/22 12:33:44;;;;;;;;;;;;;;;3.09;49.34;99986.81;4448376;32;34034;-88
2022/01/22 12:36:39;;;;;;;;;;;;;;;2.95;49.47;99978.84;4449116;32;36278;-89
2022/01/22 12:39:16;;;;;;;;;;;;;;;2.97;49.34;99978.06;4451205;32;32576;-89
2022/01/22 12:41:51;;;;;;;;;;;;;;;2.81;50.58;99964.88;4455516;32;33977;-89
2022/01/22 12:44:27;;;;;;;;;;;;;;;2.70;50.05;99978.28;4461835;32;33382;-87
2022/01/22 12:46:59;;;;;;;;;;;;;;;2.31;51.14;99970.53;4450103;32;31751;-88
2022/01/22 12:49:36;;;;;;;;;;;;;;;2.31;51.75;99961.13;4447386;32;32701;-89
2022/01/22 12:52:13;;;;;;;;;;;;;;;2.32;50.45;99965.44;4446490;32;34321;-90
2022/01/22 12:54:55;;;;;;;;;;;;;;;2.35;50.11;99962.97;4452150;32;32656;-89
2022/01/22 12:57:52;;;;;;;;;;;;;;;2.51;49.92;99971.88;4450123;32;33993;-88
2022/01/22 13:00:23;;;;;;;;;;;;;;;2.27;49.38;99987.50;4451287;32;33477;-89
2022/01/22 13:02:56;;;;;;;;;;;;;;;2.41;49.32;99989.53;4464025;32;34799;-89
2022/01/22 13:05:29;;;;;;;;;;;;;;;2.31;49.14;99996.13;4461860;32;34287;-89
2022/01/22 13:08:08;;;;;;;;;;;;;;;2.43;47.72;99990.44;4451041;32;33159;-89
2022/01/22 13:10:53;;;;;;;;;;;;;;;2.63;48.23;99989.22;4452607;32;33792;-89
2022/01/22 13:13:39;;;;;;;;;;;;;;;2.42;47.75;99989.59;4450774;32;36030;-89
2022/01/22 13:16:12;;;;;;;;;;;;;;;2.39;47.39;99983.50;4444373;32;33909;-89
2022/01/22 13:18:50;;;;;;;;;;;;;;;2.53;46.52;100015.44;4448865;32;33909;-89
2022/01/22 13:21:26;;;;;;;;;;;;;;;2.89;46.53;100004.31;4454569;32;32750;-89
2022/01/22 13:24:04;;;;;;;;;;;;;;;2.69;45.61;99989.38;4458541;32;31798;-89
2022/01/22 13:26:44;;;;;;;;;;;;;;;2.73;46.69;99992.84;4454580;32;34266;-89
2022/01/22 13:29:17;;;;;;;;;;;;;;;2.50;46.55;100007.69;4453409;32;33264;-90
2022/01/22 13:31:59;;;;;;;;;;;;;;;2.53;47.44;100011.19;4453689;32;35692;-90
2022/01/22 13:34:40;;;;;;;;;;;;;;;2.90;47.28;100017.19;4454733;32;35127;-88
2022/01/22 13:40:20;;;;;;;;;;;;;;;3.06;45.83;100036.31;4450488;32;32319;-88
2022/01/22 13:48:35;;;;;;;;;;;;;;;2.68;45.72;100054.25;4456270;32;34474;-90
2022/01/22 13:51:04;;;;;;;;;;;;;;;3.33;44.94;100053.16;4452203;32;33751;-90
2022/01/22 13:53:35;;;;;;;;;;;;;;;3.29;44.99;100066.75;4450573;32;34417;-88
2022/01/22 13:56:05;;;;;;;;;;;;;;;2.91;45.47;100066.75;4454240;32;33892;-90
2022/01/22 13:58:36;;;;;;;;;;;;;;;3.00;44.37;100069.53;4458264;32;33783;-88
2022/01/22 14:01:07;;;;;;;;;;;;;;;2.59;44.91;100073.66;4453853;32;34504;-88
2022/01/22 14:04:05;;;;;;;;;;;;;;;2.52;46.09;100080.31;4452198;32;35039;-89
2022/01/22 14:06:34;;;;;;;;;;;;;;;2.46;45.97;100075.00;4452214;32;35037;-89
2022/01/22 14:09:12;;;;;;;;;;;;;;;2.61;45.36;100082.22;4462119;32;34091;-89
2022/01/22 14:11:56;;;;;;;;;;;;;;;2.57;45.93;100088.97;4451899;32;34630;-90
2022/01/22 14:14:26;;;;;;;;;;;;;;;2.72;46.77;100089.34;4464266;32;35162;-89
2022/01/22 14:17:08;;;;;;;;;;;;;;;2.85;46.53;100103.34;4455506;32;35321;-89
2022/01/22 14:19:37;;;;;;;;;;;;;;;2.59;46.67;100114.63;4454575;32;33737;-90
2022/01/22 14:22:05;;;;;;;;;;;;;;;2.55;47.67;100139.28;4463696;32;32690;-89
2022/01/22 14:24:34;;;;;;;;;;;;;;;2.47;47.95;100133.97;4474125;32;34359;-88
2022/01/22 14:27:02;;;;;;;;;;;;;;;2.55;47.41;100141.84;4448450;32;34636;-89
2022/01/22 14:29:32;;;;;;;;;;;;;;;2.53;47.51;100146.91;4464432;32;34087;-88
2022/01/22 14:32:01;;;;;;;;;;;;;;;2.71;47.35;100156.78;4455208;32;33951;-87
2022/01/22 14:34:31;;;;;;;;;;;;;;;2.75;46.80;100158.63;4453469;32;33652;-90
2022/01/22 14:36:59;;;;;;;;;;;;;;;2.83;46.41;100178.41;4451457;32;33977;-89
2022/01/22 14:43:50;;;;;;;;;;;;;;;2.91;46.03;100182.06;4448204;32;33960;-87
2022/01/22 14:45:17;;;;;;;;;;;;;;;2.86;44.69;100191.31;4451493;32;34167;-88
2022/01/22 14:47:52;;;;;;;;;;;;;;;2.70;44.29;100187.47;4451642;32;35211;-89
2022/01/22 14:50:22;;;;;;;;;;;;;;;2.74;43.62;100202.97;4449502;32;34215;-88
2022/01/22 14:52:53;;;;;;;;;;;;;;;2.66;44.04;100201.91;4458641;32;35280;-86
2022/01/22 14:55:22;;;;;;;;;;;;;;;2.77;43.68;100205.59;4454363;32;36156;-88
2022/01/22 14:57:51;;;;;;;;;;;;;;;2.33;43.78;100224.88;4461811;32;33901;-88
2022/01/22 15:00:20;;;;;;;;;;;;;;;2.09;44.34;100215.66;4468214;32;32446;-88
2022/01/22 15:02:49;;;;;;;;;;;;;;;2.54;43.53;100212.69;4459086;32;33201;-86
2022/01/22 15:05:18;;;;;;;;;;;;;;;2.06;44.39;100223.25;4462934;32;33589;-86
2022/01/22 15:07:47;;;;;;;;;;;;;;;2.16;43.83;100226.97;4459670;32;32801;-87
2022/01/22 15:10:16;;;;;;;;;;;;;;;2.32;44.38;100221.47;4462835;32;33656;-90
2022/01/22 15:12:45;;;;;;;;;;;;;;;2.54;43.22;100216.94;4458684;32;33328;-87
2022/01/22 15:15:35;;;;;;;;;;;;;;;2.51;43.50;100220.31;4462381;32;34915;-88
2022/01/22 15:18:13;;;;;;;;;;;;;;;2.42;43.44;100220.03;4460182;32;35183;-88